Terminal Aerodrome Forecast
Issued by NWS Springfield, MO

Home | Current Version | Previous Version | Text Only | Print | Product List | Glossary On
Versions: 1 2 3 4 5 6 7 8 9 10 11 12 13 14 15 16
000
FTUS43 KSGF 010500
TAFSGF
TAF
KSGF 010520Z 0106/0206 18004KT P6SM SCT250
     FM010800 00000KT 4SM BR SCT250
     FM010900 00000KT 1SM BR SCT002
     FM011300 VRB03KT 4SM BR SKC
     FM011400 08005KT P6SM SCT030=

USA.gov is the U.S. government's official web portal to all federal, state and local government web resources and services.